Shenyang Taoxian International Airport

Airport
ICAO code: 
ZYTX
IATA Code: 
SHE
Summary
ICAO Region: 
APAC
Territory: 
Location: 
Shenyang, Liaoning,
Serving: 
Shenyang
Elevation: 
198 ft
Coordinates: 
Aerial View: 
41° 38' 24" N, 123° 29' 1" E
Metar
Observation
ZYTX 021800Z 31002MPS CAVOK M03/M11 Q1019 NOSIG
Station
Shenyang / Taokian
Date/Time
2021-12-02 18:00:00
Wind direction
310°
Lowest cloud amount
clouds and visibility OK
Temperature
-3°C
Dew point
-11°C
Humidity
53%
QNH
1019 hPa
Weather condition
n/a

Description

Shenyang Taoxian International Airport is an airport in Shenyang, Liaoning, China. It is located about 20 km south of the city center.

Climatology

Warm continental climate/Humid continental climate (Köppen climate classification Dwa).

Runways

Designator Length Width Surface Rops
6/24 3200 45 CON Yes/Yes
Airport map: 
Aerial View: 

SKYbrary Partners:

Safety knowledge contributed by: